sensor_id;sensor_type;location;lat;lon;timestamp;pressure;altitude;pressure_sealevel;temperature;humidity
35419;BME280;21525;41.240;16.500;2022-08-19T00:00:27;100554.94;;;35.95;70.77
35419;BME280;21525;41.240;16.500;2022-08-19T00:02:53;100554.22;;;36.38;68.36
35419;BME280;21525;41.240;16.500;2022-08-19T00:05:21;100549.13;;;35.54;71.29
35419;BME280;21525;41.240;16.500;2022-08-19T00:07:47;100541.69;;;35.86;69.79
35419;BME280;21525;41.240;16.500;2022-08-19T00:10:16;100542.94;;;36.19;67.95
35419;BME280;21525;41.240;16.500;2022-08-19T00:12:42;100546.81;;;35.95;67.32
35419;BME280;21525;41.240;16.500;2022-08-19T00:15:10;100540.97;;;36.28;67.67
35419;BME280;21525;41.240;16.500;2022-08-19T00:17:41;100542.19;;;36.11;67.23
35419;BME280;21525;41.240;16.500;2022-08-19T00:20:08;100541.78;;;35.78;67.16
35419;BME280;21525;41.240;16.500;2022-08-19T00:22:37;100539.34;;;35.68;68.10
35419;BME280;21525;41.240;16.500;2022-08-19T00:25:04;100535.25;;;35.87;66.88
35419;BME280;21525;41.240;16.500;2022-08-19T00:27:31;100532.34;;;35.88;65.79
35419;BME280;21525;41.240;16.500;2022-08-19T00:29:57;100526.44;;;34.88;70.96
35419;BME280;21525;41.240;16.500;2022-08-19T00:32:24;100519.47;;;34.94;70.72
35419;BME280;21525;41.240;16.500;2022-08-19T00:34:52;100515.69;;;34.80;71.80
35419;BME280;21525;41.240;16.500;2022-08-19T00:37:20;100514.31;;;34.61;71.13
35419;BME280;21525;41.240;16.500;2022-08-19T00:39:49;100516.47;;;34.89;68.17
35419;BME280;21525;41.240;16.500;2022-08-19T00:42:17;100517.19;;;35.06;64.50
35419;BME280;21525;41.240;16.500;2022-08-19T00:44:43;100511.91;;;34.89;59.22
35419;BME280;21525;41.240;16.500;2022-08-19T00:47:09;100516.72;;;35.02;56.49
35419;BME280;21525;41.240;16.500;2022-08-19T00:49:41;100514.00;;;35.02;54.93
35419;BME280;21525;41.240;16.500;2022-08-19T00:52:37;100513.53;;;35.13;53.76
35419;BME280;21525;41.240;16.500;2022-08-19T00:55:04;100506.81;;;34.94;54.21
35419;BME280;21525;41.240;16.500;2022-08-19T00:57:40;100511.78;;;35.06;51.63
35419;BME280;21525;41.240;16.500;2022-08-19T01:00:10;100505.66;;;35.56;49.37
35419;BME280;21525;41.240;16.500;2022-08-19T01:02:38;100502.31;;;35.54;47.56
35419;BME280;21525;41.240;16.500;2022-08-19T01:05:07;100498.13;;;35.37;47.40
35419;BME280;21525;41.240;16.500;2022-08-19T01:07:35;100493.06;;;35.48;45.97
35419;BME280;21525;41.240;16.500;2022-08-19T01:10:03;100489.09;;;34.92;47.82
35419;BME280;21525;41.240;16.500;2022-08-19T01:12:30;100488.72;;;35.32;46.54
35419;BME280;21525;41.240;16.500;2022-08-19T01:14:56;100490.38;;;35.33;46.62
35419;BME280;21525;41.240;16.500;2022-08-19T01:17:23;100499.66;;;34.56;47.14
35419;BME280;21525;41.240;16.500;2022-08-19T01:19:49;100492.16;;;34.66;46.61
35419;BME280;21525;41.240;16.500;2022-08-19T01:24:50;100484.81;;;34.37;48.19
35419;BME280;21525;41.240;16.500;2022-08-19T01:27:17;100490.25;;;34.75;47.09
35419;BME280;21525;41.240;16.500;2022-08-19T01:29:44;100489.94;;;34.69;46.90
35419;BME280;21525;41.240;16.500;2022-08-19T01:32:15;100486.31;;;35.00;45.82
35419;BME280;21525;41.240;16.500;2022-08-19T01:34:41;100477.16;;;34.86;45.71
35419;BME280;21525;41.240;16.500;2022-08-19T01:37:10;100469.84;;;34.72;46.32
35419;BME280;21525;41.240;16.500;2022-08-19T01:39:39;100468.94;;;35.32;45.01
35419;BME280;21525;41.240;16.500;2022-08-19T01:42:06;100464.63;;;35.08;45.97
35419;BME280;21525;41.240;16.500;2022-08-19T01:44:38;100476.16;;;35.02;46.16
35419;BME280;21525;41.240;16.500;2022-08-19T01:47:05;100472.03;;;34.00;48.18
35419;BME280;21525;41.240;16.500;2022-08-19T01:49:32;100486.25;;;35.08;45.96
35419;BME280;21525;41.240;16.500;2022-08-19T01:51:59;100481.13;;;35.57;45.11
35419;BME280;21525;41.240;16.500;2022-08-19T01:54:25;100482.97;;;35.27;45.15
35419;BME280;21525;41.240;16.500;2022-08-19T01:56:53;100480.97;;;35.29;44.97
35419;BME280;21525;41.240;16.500;2022-08-19T01:59:22;100476.47;;;35.07;45.20
35419;BME280;21525;41.240;16.500;2022-08-19T02:01:49;100473.78;;;35.66;43.98
35419;BME280;21525;41.240;16.500;2022-08-19T02:04:15;100479.81;;;35.83;43.44
35419;BME280;21525;41.240;16.500;2022-08-19T02:06:41;100488.56;;;35.99;43.33
35419;BME280;21525;41.240;16.500;2022-08-19T02:09:07;100492.69;;;35.81;43.19
35419;BME280;21525;41.240;16.500;2022-08-19T02:11:35;100496.34;;;35.88;43.44
35419;BME280;21525;41.240;16.500;2022-08-19T02:14:04;100498.00;;;36.04;43.57
35419;BME280;21525;41.240;16.500;2022-08-19T02:16:31;100498.56;;;36.20;43.46
35419;BME280;21525;41.240;16.500;2022-08-19T02:18:58;100520.41;;;35.68;43.80
35419;BME280;21525;41.240;16.500;2022-08-19T02:21:28;100536.94;;;35.88;43.79
35419;BME280;21525;41.240;16.500;2022-08-19T02:23:54;100554.09;;;35.95;43.54
35419;BME280;21525;41.240;16.500;2022-08-19T02:26:21;100535.94;;;36.10;43.47
35419;BME280;21525;41.240;16.500;2022-08-19T02:28:47;100522.94;;;35.40;44.17
35419;BME280;21525;41.240;16.500;2022-08-19T02:31:18;100521.72;;;35.57;44.84
35419;BME280;21525;41.240;16.500;2022-08-19T02:33:45;100526.09;;;35.73;43.94
35419;BME280;21525;41.240;16.500;2022-08-19T02:36:12;100537.00;;;35.94;43.51
35419;BME280;21525;41.240;16.500;2022-08-19T02:38:39;100531.41;;;35.96;43.59
35419;BME280;21525;41.240;16.500;2022-08-19T02:41:11;100536.19;;;35.79;44.72
35419;BME280;21525;41.240;16.500;2022-08-19T02:43:38;100544.84;;;35.89;45.51
35419;BME280;21525;41.240;16.500;2022-08-19T02:46:35;100554.53;;;35.54;48.99
35419;BME280;21525;41.240;16.500;2022-08-19T02:49:03;100551.84;;;35.40;51.59
35419;BME280;21525;41.240;16.500;2022-08-19T02:51:34;100562.25;;;35.43;55.79
35419;BME280;21525;41.240;16.500;2022-08-19T02:54:01;100567.16;;;35.24;59.16
35419;BME280;21525;41.240;16.500;2022-08-19T02:56:27;100560.69;;;35.11;61.41
35419;BME280;21525;41.240;16.500;2022-08-19T02:58:54;100552.94;;;34.93;63.62
35419;BME280;21525;41.240;16.500;2022-08-19T03:01:25;100553.16;;;35.06;65.10
35419;BME280;21525;41.240;16.500;2022-08-19T03:03:52;100541.50;;;34.83;67.51
35419;BME280;21525;41.240;16.500;2022-08-19T03:06:19;100548.78;;;34.82;68.60
35419;BME280;21525;41.240;16.500;2022-08-19T03:08:47;100550.03;;;34.72;70.45
35419;BME280;21525;41.240;16.500;2022-08-19T03:11:24;100548.25;;;34.87;70.19
35419;BME280;21525;41.240;16.500;2022-08-19T03:13:51;100555.03;;;35.06;69.64
35419;BME280;21525;41.240;16.500;2022-08-19T03:16:18;100543.03;;;34.77;72.01
35419;BME280;21525;41.240;16.500;2022-08-19T03:21:26;100548.59;;;34.84;72.86
35419;BME280;21525;41.240;16.500;2022-08-19T03:23:57;100553.00;;;35.22;71.44
35419;BME280;21525;41.240;16.500;2022-08-19T03:26:23;100559.72;;;34.89;72.30
35419;BME280;21525;41.240;16.500;2022-08-19T03:28:49;100551.84;;;35.02;71.91
35419;BME280;21525;41.240;16.500;2022-08-19T03:31:21;100547.00;;;35.12;70.75
35419;BME280;21525;41.240;16.500;2022-08-19T03:33:49;100537.84;;;35.36;69.38
35419;BME280;21525;41.240;16.500;2022-08-19T03:36:21;100524.88;;;34.94;70.38
35419;BME280;21525;41.240;16.500;2022-08-19T03:38:50;100513.63;;;35.05;69.96
35419;BME280;21525;41.240;16.500;2022-08-19T03:41:23;100517.72;;;35.01;69.94
35419;BME280;21525;41.240;16.500;2022-08-19T03:43:51;100527.50;;;35.40;67.43
35419;BME280;21525;41.240;16.500;2022-08-19T03:46:20;100530.47;;;34.92;69.17
35419;BME280;21525;41.240;16.500;2022-08-19T03:48:48;100540.09;;;35.10;69.31
35419;BME280;21525;41.240;16.500;2022-08-19T03:51:17;100548.00;;;35.34;67.71
35419;BME280;21525;41.240;16.500;2022-08-19T03:53:43;100554.97;;;35.28;67.49
35419;BME280;21525;41.240;16.500;2022-08-19T03:56:10;100553.97;;;35.29;67.64
35419;BME280;21525;41.240;16.500;2022-08-19T03:58:35;100561.53;;;35.49;66.84
35419;BME280;21525;41.240;16.500;2022-08-19T04:01:08;100582.88;;;35.44;65.99
35419;BME280;21525;41.240;16.500;2022-08-19T04:03:35;100581.84;;;35.30;66.66
35419;BME280;21525;41.240;16.500;2022-08-19T04:06:19;100563.31;;;35.04;67.48
35419;BME280;21525;41.240;16.500;2022-08-19T04:08:48;100560.13;;;35.00;67.20
35419;BME280;21525;41.240;16.500;2022-08-19T04:11:18;100552.28;;;35.43;65.13
35419;BME280;21525;41.240;16.500;2022-08-19T04:13:47;100549.25;;;35.23;65.73
35419;BME280;21525;41.240;16.500;2022-08-19T04:16:14;100537.09;;;35.42;64.96
35419;BME280;21525;41.240;16.500;2022-08-19T04:18:40;100534.41;;;35.05;65.84
35419;BME280;21525;41.240;16.500;2022-08-19T04:21:07;100554.53;;;35.02;66.68
35419;BME280;21525;41.240;16.500;2022-08-19T04:23:34;100564.63;;;34.85;67.54
35419;BME280;21525;41.240;16.500;2022-08-19T04:26:01;100564.91;;;35.13;65.77
35419;BME280;21525;41.240;16.500;2022-08-19T04:28:28;100565.63;;;35.45;64.50
35419;BME280;21525;41.240;16.500;2022-08-19T04:30:55;100585.31;;;35.53;64.43
35419;BME280;21525;41.240;16.500;2022-08-19T04:33:24;100584.75;;;35.43;64.28
35419;BME280;21525;41.240;16.500;2022-08-19T04:35:52;100576.75;;;35.64;63.63
35419;BME280;21525;41.240;16.500;2022-08-19T04:38:21;100596.59;;;35.42;63.03
35419;BME280;21525;41.240;16.500;2022-08-19T04:40:51;100603.03;;;35.41;63.23
35419;BME280;21525;41.240;16.500;2022-08-19T04:43:49;100601.22;;;35.71;62.56
35419;BME280;21525;41.240;16.500;2022-08-19T04:46:15;100612.97;;;35.78;61.71
35419;BME280;21525;41.240;16.500;2022-08-19T04:48:43;100604.63;;;36.24;59.97
35419;BME280;21525;41.240;16.500;2022-08-19T04:51:11;100594.66;;;36.10;60.11
35419;BME280;21525;41.240;16.500;2022-08-19T04:53:40;100581.25;;;35.87;61.10
35419;BME280;21525;41.240;16.500;2022-08-19T04:56:12;100575.41;;;36.19;59.84
35419;BME280;21525;41.240;16.500;2022-08-19T04:58:41;100569.13;;;35.97;60.31
35419;BME280;21525;41.240;16.500;2022-08-19T05:01:09;100558.91;;;36.29;59.54
35419;BME280;21525;41.240;16.500;2022-08-19T05:03:37;100550.16;;;35.97;60.50
35419;BME280;21525;41.240;16.500;2022-08-19T05:06:05;100546.91;;;36.02;60.53
35419;BME280;21525;41.240;16.500;2022-08-19T05:08:34;100554.38;;;35.85;60.79
35419;BME280;21525;41.240;16.500;2022-08-19T05:11:14;100562.66;;;35.54;61.78
35419;BME280;21525;41.240;16.500;2022-08-19T05:13:42;100572.06;;;35.44;61.96
35419;BME280;21525;41.240;16.500;2022-08-19T05:16:09;100562.75;;;35.61;61.78
35419;BME280;21525;41.240;16.500;2022-08-19T05:18:35;100560.72;;;35.92;60.50
35419;BME280;21525;41.240;16.500;2022-08-19T05:21:21;100578.00;;;36.42;59.04
35419;BME280;21525;41.240;16.500;2022-08-19T05:24:07;100580.56;;;36.29;59.20
35419;BME280;21525;41.240;16.500;2022-08-19T05:26:40;100576.50;;;36.97;56.86
35419;BME280;21525;41.240;16.500;2022-08-19T05:29:07;100574.75;;;37.39;55.67
35419;BME280;21525;41.240;16.500;2022-08-19T05:31:35;100546.34;;;37.97;53.42
35419;BME280;21525;41.240;16.500;2022-08-19T05:34:02;100566.66;;;38.95;51.21
35419;BME280;21525;41.240;16.500;2022-08-19T05:36:34;100581.00;;;38.56;50.43
35419;BME280;21525;41.240;16.500;2022-08-19T05:39:02;100568.34;;;39.62;48.38
35419;BME280;21525;41.240;16.500;2022-08-19T05:41:29;100560.16;;;40.20;46.78
35419;BME280;21525;41.240;16.500;2022-08-19T05:43:56;100566.47;;;40.20;45.99
35419;BME280;21525;41.240;16.500;2022-08-19T05:46:23;100577.84;;;39.97;46.29
35419;BME280;21525;41.240;16.500;2022-08-19T05:48:48;100584.09;;;40.56;45.01
35419;BME280;21525;41.240;16.500;2022-08-19T05:51:15;100581.00;;;40.46;44.67
35419;BME280;21525;41.240;16.500;2022-08-19T05:53:42;100582.34;;;40.61;44.42
35419;BME280;21525;41.240;16.500;2022-08-19T05:56:10;100574.13;;;41.00;43.19
35419;BME280;21525;41.240;16.500;2022-08-19T05:58:37;100572.34;;;40.17;43.69
35419;BME280;21525;41.240;16.500;2022-08-19T06:01:09;100567.56;;;40.51;42.82
35419;BME280;21525;41.240;16.500;2022-08-19T06:03:35;100575.81;;;40.76;40.76
35419;BME280;21525;41.240;16.500;2022-08-19T06:06:03;100578.00;;;40.92;39.83
35419;BME280;21525;41.240;16.500;2022-08-19T06:08:30;100574.50;;;40.85;39.08
35419;BME280;21525;41.240;16.500;2022-08-19T06:10:56;100571.97;;;41.76;37.36
35419;BME280;21525;41.240;16.500;2022-08-19T06:13:22;100572.13;;;41.81;36.23
35419;BME280;21525;41.240;16.500;2022-08-19T06:15:49;100578.44;;;42.30;35.68
35419;BME280;21525;41.240;16.500;2022-08-19T06:18:15;100582.06;;;42.12;35.40
35419;BME280;21525;41.240;16.500;2022-08-19T06:20:42;100591.78;;;42.38;35.15
35419;BME280;21525;41.240;16.500;2022-08-19T06:23:08;100600.44;;;42.23;33.67
35419;BME280;21525;41.240;16.500;2022-08-19T06:25:35;100616.31;;;41.28;35.33
35419;BME280;21525;41.240;16.500;2022-08-19T06:28:01;100641.81;;;40.84;35.26
35419;BME280;21525;41.240;16.500;2022-08-19T06:30:28;100643.28;;;40.87;35.56
35419;BME280;21525;41.240;16.500;2022-08-19T06:32:54;100653.97;;;40.44;35.34
35419;BME280;21525;41.240;16.500;2022-08-19T06:35:20;100656.78;;;40.17;35.34
35419;BME280;21525;41.240;16.500;2022-08-19T06:37:46;100660.56;;;40.10;35.99
35419;BME280;21525;41.240;16.500;2022-08-19T06:40:12;100672.59;;;39.62;35.80
35419;BME280;21525;41.240;16.500;2022-08-19T06:42:39;100682.41;;;39.44;36.57
35419;BME280;21525;41.240;16.500;2022-08-19T06:45:06;100678.41;;;39.13;36.80
35419;BME280;21525;41.240;16.500;2022-08-19T06:47:34;100659.97;;;38.95;38.00
35419;BME280;21525;41.240;16.500;2022-08-19T06:50:00;100634.47;;;39.10;39.34
35419;BME280;21525;41.240;16.500;2022-08-19T06:52:33;100640.75;;;38.43;43.73
35419;BME280;21525;41.240;16.500;2022-08-19T06:55:01;100678.53;;;38.03;49.19
35419;BME280;21525;41.240;16.500;2022-08-19T06:57:27;100701.81;;;37.56;54.98
35419;BME280;21525;41.240;16.500;2022-08-19T06:59:58;100675.78;;;36.98;60.76
35419;BME280;21525;41.240;16.500;2022-08-19T07:02:25;100684.38;;;37.02;61.54
35419;BME280;21525;41.240;16.500;2022-08-19T07:04:52;100707.41;;;36.91;62.99
35419;BME280;21525;41.240;16.500;2022-08-19T07:07:19;100702.88;;;36.62;63.39
35419;BME280;21525;41.240;16.500;2022-08-19T07:09:46;100722.47;;;36.64;60.67
35419;BME280;21525;41.240;16.500;2022-08-19T07:12:13;100724.44;;;36.55;62.42
35419;BME280;21525;41.240;16.500;2022-08-19T07:14:42;100726.78;;;36.58;61.92
35419;BME280;21525;41.240;16.500;2022-08-19T07:17:10;100727.91;;;36.64;64.01
35419;BME280;21525;41.240;16.500;2022-08-19T07:19:37;100732.84;;;36.60;63.47
35419;BME280;21525;41.240;16.500;2022-08-19T07:22:05;100734.25;;;36.42;60.12
35419;BME280;21525;41.240;16.500;2022-08-19T07:24:32;100746.56;;;36.15;59.62
35419;BME280;21525;41.240;16.500;2022-08-19T07:27:00;100743.31;;;36.63;59.31
35419;BME280;21525;41.240;16.500;2022-08-19T07:29:30;100758.53;;;36.79;60.03
35419;BME280;21525;41.240;16.500;2022-08-19T07:31:59;100758.91;;;36.76;60.30
35419;BME280;21525;41.240;16.500;2022-08-19T07:34:28;100750.88;;;36.53;60.11
35419;BME280;21525;41.240;16.500;2022-08-19T07:36:55;100757.34;;;36.52;59.77
35419;BME280;21525;41.240;16.500;2022-08-19T07:39:28;100751.59;;;36.18;59.37
35419;BME280;21525;41.240;16.500;2022-08-19T07:41:56;100747.53;;;36.51;60.45
35419;BME280;21525;41.240;16.500;2022-08-19T07:44:22;100763.53;;;36.09;62.00
35419;BME280;21525;41.240;16.500;2022-08-19T07:46:52;100760.72;;;35.87;61.57
35419;BME280;21525;41.240;16.500;2022-08-19T07:49:19;100766.72;;;36.12;60.51
35419;BME280;21525;41.240;16.500;2022-08-19T07:51:48;100781.03;;;35.83;59.56
35419;BME280;21525;41.240;16.500;2022-08-19T07:54:15;100792.88;;;35.82;59.98
35419;BME280;21525;41.240;16.500;2022-08-19T07:56:41;100790.22;;;35.74;60.91
35419;BME280;21525;41.240;16.500;2022-08-19T07:59:07;100784.75;;;35.59;61.63
35419;BME280;21525;41.240;16.500;2022-08-19T08:01:34;100789.34;;;35.82;61.02
35419;BME280;21525;41.240;16.500;2022-08-19T08:04:01;100797.81;;;35.33;62.07
35419;BME280;21525;41.240;16.500;2022-08-19T08:06:45;100807.50;;;35.73;60.55
35419;BME280;21525;41.240;16.500;2022-08-19T08:09:34;100811.19;;;35.18;62.09
35419;BME280;21525;41.240;16.500;2022-08-19T08:12:04;100783.97;;;35.51;60.23
35419;BME280;21525;41.240;16.500;2022-08-19T08:14:39;100769.03;;;35.63;61.65
35419;BME280;21525;41.240;16.500;2022-08-19T08:17:08;100774.22;;;35.42;62.44
35419;BME280;21525;41.240;16.500;2022-08-19T08:19:34;100764.47;;;35.41;60.89
35419;BME280;21525;41.240;16.500;2022-08-19T08:22:01;100778.28;;;35.15;61.79
35419;BME280;21525;41.240;16.500;2022-08-19T08:24:30;100774.78;;;35.06;62.08
35419;BME280;21525;41.240;16.500;2022-08-19T08:26:58;100775.69;;;35.21;61.80
35419;BME280;21525;41.240;16.500;2022-08-19T08:29:26;100771.75;;;35.40;60.99
35419;BME280;21525;41.240;16.500;2022-08-19T08:31:52;100766.94;;;35.19;62.34
35419;BME280;21525;41.240;16.500;2022-08-19T08:34:20;100758.50;;;35.14;59.56
35419;BME280;21525;41.240;16.500;2022-08-19T08:36:46;100756.34;;;35.41;58.26
35419;BME280;21525;41.240;16.500;2022-08-19T08:39:15;100733.13;;;35.69;59.32
35419;BME280;21525;41.240;16.500;2022-08-19T08:47:10;100717.69;;;34.39;62.81
35419;BME280;21525;41.240;16.500;2022-08-19T08:50:09;100712.00;;;34.01;66.02
35419;BME280;21525;41.240;16.500;2022-08-19T08:52:44;100684.72;;;33.48;64.83
35419;BME280;21525;41.240;16.500;2022-08-19T08:55:15;100684.78;;;34.19;63.35
35419;BME280;21525;41.240;16.500;2022-08-19T09:00:25;100649.63;;;35.66;57.28
35419;BME280;21525;41.240;16.500;2022-08-19T09:02:53;100641.97;;;35.09;56.80
35419;BME280;21525;41.240;16.500;2022-08-19T09:05:19;100671.06;;;33.82;61.26
35419;BME280;21525;41.240;16.500;2022-08-19T09:10:34;100691.06;;;35.81;55.27
35419;BME280;21525;41.240;16.500;2022-08-19T09:15:41;100685.16;;;35.63;55.55
35419;BME280;21525;41.240;16.500;2022-08-19T09:18:10;100689.59;;;35.93;55.05
35419;BME280;21525;41.240;16.500;2022-08-19T09:20:36;100722.28;;;35.92;56.66
35419;BME280;21525;41.240;16.500;2022-08-19T09:23:05;100740.38;;;35.23;57.87
35419;BME280;21525;41.240;16.500;2022-08-19T09:25:31;100704.91;;;34.64;58.41
35419;BME280;21525;41.240;16.500;2022-08-19T09:27:58;100630.66;;;35.51;56.45
35419;BME280;21525;41.240;16.500;2022-08-19T09:30:30;100610.16;;;34.96;58.77
35419;BME280;21525;41.240;16.500;2022-08-19T09:32:57;100627.50;;;34.79;58.16
35419;BME280;21525;41.240;16.500;2022-08-19T09:35:25;100667.00;;;35.34;57.51
35419;BME280;21525;41.240;16.500;2022-08-19T09:37:53;100660.66;;;35.42;58.63
35419;BME280;21525;41.240;16.500;2022-08-19T09:40:19;100640.25;;;35.91;58.25
35419;BME280;21525;41.240;16.500;2022-08-19T09:42:46;100609.38;;;36.51;55.98
35419;BME280;21525;41.240;16.500;2022-08-19T09:45:18;100609.22;;;36.38;56.08
35419;BME280;21525;41.240;16.500;2022-08-19T09:47:46;100621.19;;;37.22;54.38
35419;BME280;21525;41.240;16.500;2022-08-19T09:50:13;100624.16;;;37.27;54.11
35419;BME280;21525;41.240;16.500;2022-08-19T09:52:39;100624.47;;;37.46;53.59
35419;BME280;21525;41.240;16.500;2022-08-19T09:55:10;100625.28;;;37.95;50.60
35419;BME280;21525;41.240;16.500;2022-08-19T09:57:37;100624.69;;;38.07;50.76
35419;BME280;21525;41.240;16.500;2022-08-19T10:00:06;100622.47;;;38.64;49.75
35419;BME280;21525;41.240;16.500;2022-08-19T10:02:42;100618.38;;;38.41;50.67
35419;BME280;21525;41.240;16.500;2022-08-19T10:05:08;100635.38;;;38.56;48.27
35419;BME280;21525;41.240;16.500;2022-08-19T10:07:53;100646.84;;;38.51;48.10
35419;BME280;21525;41.240;16.500;2022-08-19T10:10:19;100653.47;;;38.29;46.87
35419;BME280;21525;41.240;16.500;2022-08-19T10:12:45;100647.50;;;38.12;45.34
35419;BME280;21525;41.240;16.500;2022-08-19T10:15:12;100643.16;;;38.72;43.70
35419;BME280;21525;41.240;16.500;2022-08-19T10:17:38;100650.09;;;38.88;43.13
35419;BME280;21525;41.240;16.500;2022-08-19T10:20:05;100649.00;;;38.15;44.14
35419;BME280;21525;41.240;16.500;2022-08-19T10:22:31;100649.28;;;38.87;42.98
35419;BME280;21525;41.240;16.500;2022-08-19T10:24:57;100639.50;;;38.45;43.59
35419;BME280;21525;41.240;16.500;2022-08-19T10:27:23;100638.38;;;38.81;42.64
35419;BME280;21525;41.240;16.500;2022-08-19T10:29:49;100651.50;;;38.57;42.95
35419;BME280;21525;41.240;16.500;2022-08-19T10:32:15;100632.31;;;38.79;41.67
35419;BME280;21525;41.240;16.500;2022-08-19T10:34:41;100649.88;;;38.76;41.55
35419;BME280;21525;41.240;16.500;2022-08-19T10:37:07;100653.69;;;39.02;40.99
35419;BME280;21525;41.240;16.500;2022-08-19T10:39:34;100666.00;;;38.30;42.38
35419;BME280;21525;41.240;16.500;2022-08-19T10:42:08;100665.22;;;38.49;41.84
35419;BME280;21525;41.240;16.500;2022-08-19T10:44:36;100659.19;;;37.78;43.02
35419;BME280;21525;41.240;16.500;2022-08-19T10:47:03;100656.81;;;38.31;42.69
35419;BME280;21525;41.240;16.500;2022-08-19T10:49:29;100677.09;;;38.01;43.18
35419;BME280;21525;41.240;16.500;2022-08-19T10:51:56;100674.34;;;38.28;43.31
35419;BME280;21525;41.240;16.500;2022-08-19T10:54:40;100680.72;;;37.80;44.35
35419;BME280;21525;41.240;16.500;2022-08-19T10:57:24;100690.81;;;37.92;43.81
35419;BME280;21525;41.240;16.500;2022-08-19T10:59:55;100704.97;;;37.39;45.05
35419;BME280;21525;41.240;16.500;2022-08-19T11:02:21;100702.72;;;37.42;45.13
35419;BME280;21525;41.240;16.500;2022-08-19T11:04:48;100697.09;;;37.44;45.52
35419;BME280;21525;41.240;16.500;2022-08-19T11:07:15;100711.59;;;37.29;46.43
35419;BME280;21525;41.240;16.500;2022-08-19T11:09:42;100698.22;;;37.28;46.25
35419;BME280;21525;41.240;16.500;2022-08-19T11:12:09;100687.50;;;36.33;48.13
35419;BME280;21525;41.240;16.500;2022-08-19T11:14:36;100673.75;;;36.85;47.04
35419;BME280;21525;41.240;16.500;2022-08-19T11:17:04;100672.94;;;37.49;45.26
35419;BME280;21525;41.240;16.500;2022-08-19T11:19:30;100669.28;;;37.63;45.01
35419;BME280;21525;41.240;16.500;2022-08-19T11:21:56;100678.69;;;37.18;45.36
35419;BME280;21525;41.240;16.500;2022-08-19T11:24:25;100683.63;;;37.78;43.83
35419;BME280;21525;41.240;16.500;2022-08-19T11:26:54;100689.25;;;38.11;43.69
35419;BME280;21525;41.240;16.500;2022-08-19T11:29:25;100699.78;;;38.21;44.11
35419;BME280;21525;41.240;16.500;2022-08-19T11:31:53;100702.38;;;38.83;42.33
35419;BME280;21525;41.240;16.500;2022-08-19T11:34:22;100691.50;;;38.83;41.89
35419;BME280;21525;41.240;16.500;2022-08-19T11:36:50;100679.47;;;39.12;41.77
35419;BME280;21525;41.240;16.500;2022-08-19T11:39:20;100664.94;;;38.79;41.58
35419;BME280;21525;41.240;16.500;2022-08-19T11:41:46;100643.50;;;38.49;41.92
35419;BME280;21525;41.240;16.500;2022-08-19T11:44:12;100631.50;;;38.24;42.65
35419;BME280;21525;41.240;16.500;2022-08-19T11:46:40;100603.06;;;37.85;43.65
35419;BME280;21525;41.240;16.500;2022-08-19T11:49:07;100598.22;;;37.81;43.59
35419;BME280;21525;41.240;16.500;2022-08-19T11:51:35;100593.69;;;38.29;43.14
35419;BME280;21525;41.240;16.500;2022-08-19T11:54:04;100600.97;;;38.22;43.35
35419;BME280;21525;41.240;16.500;2022-08-19T11:56:30;100624.16;;;38.66;43.15
35419;BME280;21525;41.240;16.500;2022-08-19T11:58:57;100632.31;;;38.79;42.20
35419;BME280;21525;41.240;16.500;2022-08-19T12:01:25;100656.19;;;38.36;42.27
35419;BME280;21525;41.240;16.500;2022-08-19T12:03:53;100650.88;;;38.62;41.12
35419;BME280;21525;41.240;16.500;2022-08-19T12:06:25;100648.97;;;38.56;41.75
35419;BME280;21525;41.240;16.500;2022-08-19T12:08:59;100630.66;;;38.84;41.50
35419;BME280;21525;41.240;16.500;2022-08-19T12:11:26;100640.97;;;38.48;42.85
35419;BME280;21525;41.240;16.500;2022-08-19T12:13:53;100627.59;;;37.98;43.53
35419;BME280;21525;41.240;16.500;2022-08-19T12:16:22;100593.97;;;37.99;43.57
35419;BME280;21525;41.240;16.500;2022-08-19T12:18:49;100538.50;;;38.22;43.99
35419;BME280;21525;41.240;16.500;2022-08-19T12:21:19;100523.50;;;37.50;45.32
35419;BME280;21525;41.240;16.500;2022-08-19T12:23:48;100537.56;;;37.95;44.92
35419;BME280;21525;41.240;16.500;2022-08-19T12:26:15;100538.25;;;37.35;46.92
35419;BME280;21525;41.240;16.500;2022-08-19T12:28:42;100539.47;;;37.11;47.69
35419;BME280;21525;41.240;16.500;2022-08-19T12:31:08;100561.38;;;37.30;46.50
35419;BME280;21525;41.240;16.500;2022-08-19T12:33:38;100574.75;;;38.08;44.42
35419;BME280;21525;41.240;16.500;2022-08-19T12:36:06;100596.91;;;37.70;45.59
35419;BME280;21525;41.240;16.500;2022-08-19T12:38:33;100618.56;;;37.91;44.31
35419;BME280;21525;41.240;16.500;2022-08-19T12:41:00;100619.94;;;37.53;44.44
35419;BME280;21525;41.240;16.500;2022-08-19T12:43:26;100637.50;;;38.60;42.91
35419;BME280;21525;41.240;16.500;2022-08-19T12:45:52;100681.22;;;38.66;41.34
35419;BME280;21525;41.240;16.500;2022-08-19T12:48:18;100696.53;;;38.39;41.68
35419;BME280;21525;41.240;16.500;2022-08-19T12:50:45;100682.59;;;38.55;42.96
35419;BME280;21525;41.240;16.500;2022-08-19T12:53:13;100665.75;;;38.66;44.02
35419;BME280;21525;41.240;16.500;2022-08-19T12:55:39;100640.47;;;38.85;45.08
35419;BME280;21525;41.240;16.500;2022-08-19T12:58:05;100620.25;;;39.14;45.30
35419;BME280;21525;41.240;16.500;2022-08-19T13:00:31;100591.75;;;38.90;44.73
35419;BME280;21525;41.240;16.500;2022-08-19T13:02:58;100579.53;;;38.47;46.32
35419;BME280;21525;41.240;16.500;2022-08-19T13:05:27;100600.22;;;37.38;50.15